Flight Track Log - Related Links

Times and Time Zones

All times are in EDT time to prevent confusion due to time zone crossing. See the CSN3457 flight status page for this flight to view local times or setup timezone preferences in your user account.

Time Position Orientation Groundspeed Altitude Reporting Facility
EDT Latitude Longitude Course Direction KTS MPH feet Rate Location/Type
Fri 07:43:10 PM 22.6480 113.8060 180° South 96 110  Level FlightAware ADS-B
Fri 07:43:29 PM 22.6380 113.8110 155° Southeast 165 190 2,143 Level FlightAware ADS-B
Fri 07:43:52 PM 22.6200 113.8210 153° Southeast 171 197 1,500 3,628 Climbing FlightAware ADS-B
Fri 07:44:12 PM 22.6070 113.8280 154° Southeast 155 178 2,600 2,429 Climbing FlightAware ADS-B
Fri 07:44:34 PM 22.5920 113.8360 154° Southeast 167 192 3,200 1,579 Climbing FlightAware ADS-B
Fri 07:44:50 PM 22.5810 113.8420 153° Southeast 174 200 3,600 1,500 Climbing FlightAware ADS-B
Fri 07:45:10 PM 22.5660 113.8520 148° Southeast 201 231 4,100 1,500 Climbing FlightAware ADS-B
Fri 07:45:18 PM 22.5620 113.8590 122° Southeast 213 245 4,300 1,500 Climbing FlightAware ADS-B
Fri 07:45:22 PM 22.5610 113.8630 105° East 218 251 4,400 2,000 Climbing FlightAware ADS-B
Fri 07:45:30 PM 22.5600 113.8720 97° East 227 261 4,700 1,929 Climbing FlightAware ADS-B
Fri 07:45:50 PM 22.5680 113.8930 68° East 239 275 5,300 1,929 Climbing FlightAware ADS-B
Fri 07:45:58 PM 22.5740 113.8990 43° Northeast 241 277 5,600 1,875 Climbing FlightAware ADS-B
Fri 07:46:06 PM 22.5820 113.9050 35° Northeast 242 278 5,800 1,500 Climbing FlightAware ADS-B
Fri 07:46:14 PM 22.5910 113.9070 12° North 241 277 6,000 1,286 Climbing FlightAware ADS-B
Fri 07:46:34 PM 22.6130 113.9090 North 253 291 6,400 1,263 Climbing FlightAware ADS-B
Fri 07:46:52 PM 22.6350 113.9060 353° North 268 308 6,800 1,429 Climbing FlightAware ADS-B
Fri 07:47:16 PM 22.6660 113.9020 353° North 289 333 7,400 1,814 Climbing FlightAware ADS-B
Fri 07:47:35 PM 22.6920 113.8990 354° North 294 338 8,100 2,372 Climbing FlightAware ADS-B
Fri 07:47:59 PM 22.7240 113.8950 353° North 293 337 9,100 2,400 Climbing FlightAware ADS-B
Fri 07:48:20 PM 22.7540 113.8920 355° North 299 344 9,900 2,082 Climbing FlightAware ADS-B
Fri 07:48:48 PM 22.7930 113.8850 351° North 305 351 10,800 1,500 Climbing FlightAware ADS-B
Fri 07:49:20 PM 22.8330 113.8610 331° Northwest 326 375 11,400 1,433 Climbing FlightAware ADS-B
Fri 07:49:55 PM 22.8780 113.8290 327° Northwest 338 389 12,400 1,750 Climbing FlightAware ADS-B
Fri 07:50:32 PM 22.9290 113.7940 328° Northwest 348 400 13,500 1,808 Climbing FlightAware ADS-B
Fri 07:51:08 PM 22.9780 113.7600 327° Northwest 356 410 14,600 1,800 Climbing FlightAware ADS-B
Fri 07:51:42 PM 23.0270 113.7270 328° Northwest 364 419 15,600 1,913 Climbing FlightAware ADS-B
Fri 07:52:17 PM 23.0760 113.6920 327° Northwest 364 419 16,800 1,833 Climbing FlightAware ADS-B
Fri 07:52:54 PM 23.1300 113.6550 328° Northwest 369 425 17,800 1,826 Climbing FlightAware ADS-B
Fri 07:53:26 PM 23.1760 113.6230 327° Northwest 366 421 18,900 1,500 Climbing FlightAware ADS-B
Fri 07:54:02 PM 23.2290 113.5860 327° Northwest 385 443 19,500 706 Climbing FlightAware ADS-B
Fri 07:54:34 PM 23.2780 113.5520 327° Northwest 405 466 19,700 522 Climbing FlightAware ADS-B
Fri 07:55:11 PM 23.3380 113.5100 327° Northwest 424 488 20,100 1,644 Climbing FlightAware ADS-B
Fri 07:55:47 PM 23.3970 113.4700 328° Northwest 405 466 21,700 2,113 Climbing FlightAware ADS-B
Fri 07:56:22 PM 23.4530 113.4340 329° Northwest 403 464 22,600 806 Climbing FlightAware ADS-B
Fri 07:56:54 PM 23.5060 113.3990 329° Northwest 425 489 22,600 1,183 Level FlightAware ADS-B
Fri 07:57:33 PM 23.5700 113.3570 329° Northwest 412 474 24,000 1,703 Climbing FlightAware ADS-B
Fri 07:58:08 PM 23.6290 113.3170 328° Northwest 413 475 24,700 930 Climbing FlightAware ADS-B
Fri 07:58:44 PM 23.6860 113.2750 326° Northwest 418 481 25,100 882 Climbing FlightAware ADS-B
Fri 07:59:16 PM 23.7350 113.2360 324° Northwest 418 481 25,700 1,147 Climbing FlightAware ADS-B
Fri 07:59:52 PM 23.7880 113.1850 319° Northwest 412 474 26,400 1,313 Climbing FlightAware ADS-B
Fri 08:00:20 PM 23.8210 113.1400 309° West 402 463 27,100 1,219 Climbing FlightAware ADS-B
Fri 08:00:56 PM 23.8490 113.0740 295° West 403 464 27,700 882 Climbing FlightAware ADS-B
Fri 08:01:28 PM 23.8730 113.0140 294° West 408 470 28,100 857 Climbing FlightAware ADS-B
Fri 08:02:06 PM 23.9020 112.9410 293° West 410 472 28,700 1,114 Climbing FlightAware ADS-B
Fri 08:02:38 PM 23.9270 112.8810 295° West 407 468 29,400 806 Climbing FlightAware ADS-B
Fri 08:03:13 PM 23.9540 112.8160 294° West 414 476 29,600 575 Climbing FlightAware ADS-B
Fri 08:03:51 PM 23.9850 112.7410 294° West 416 479 30,100 857 Climbing FlightAware ADS-B
Fri 08:04:23 PM 24.0090 112.6820 294° West 414 476 30,600 794 Climbing FlightAware ADS-B
Fri 08:04:59 PM 24.0380 112.6110 294° West 416 479 31,000 568 Climbing FlightAware ADS-B
Fri 08:05:37 PM 24.0680 112.5380 294° West 422 486 31,300 600 Climbing FlightAware ADS-B
Fri 08:06:09 PM 24.0940 112.4740 294° West 423 487 31,700 618 Climbing FlightAware ADS-B
Fri 08:06:45 PM 24.1230 112.4040 294° West 427 491 32,000 500 Climbing FlightAware ADS-B
Fri 08:07:21 PM 24.1520 112.3320 294° West 430 495 32,300 429 Climbing FlightAware ADS-B
Fri 08:07:55 PM 24.1800 112.2650 295° West 435 501 32,500 514 Climbing FlightAware ADS-B
Fri 08:08:31 PM 24.2090 112.1920 294° West 436 502 32,900 514 Climbing FlightAware ADS-B
Fri 08:09:05 PM 24.2370 112.1240 294° West 439 505 33,100 429 Climbing FlightAware ADS-B
Fri 08:09:41 PM 24.2660 112.0510 294° West 440 506 33,400 514 Climbing FlightAware ADS-B
Fri 08:10:15 PM 24.2950 111.9800 294° West 442 509 33,700 429 Climbing FlightAware ADS-B
Fri 08:10:51 PM 24.3250 111.9060 294° West 445 512 33,900 348 Climbing FlightAware ADS-B
Fri 08:11:24 PM 24.3480 111.8490 294° West 447 514 34,100 160 Climbing FlightAware ADS-B
Fri 08:12:06 PM 24.3840 111.7570 293° West 451 519 34,100  Level FlightAware ADS-B
Fri 08:12:45 PM 24.4190 111.6720 294° West 466 536 34,100  Level FlightAware ADS-B
Fri 08:13:17 PM 24.4490 111.5980 294° West 473 544 34,100  Level FlightAware ADS-B
Fri 08:13:53 PM 24.4890 111.5210 300° West 482 555 34,100  Level FlightAware ADS-B
Fri 08:14:26 PM 24.5340 111.4570 308° West 483 556 34,100  Level FlightAware ADS-B
Fri 08:15:19 PM 24.5990 111.3620 307° West 480 552 34,100  Level FlightAware ADS-B
Fri 08:15:55 PM 24.6400 111.3020 307° West 480 552 34,100 90 Level FlightAware ADS-B
Fri 08:16:26 PM 24.6960 111.2210 307° West 483 556 34,200  Climbing FlightAware ADS-B
Fri 08:17:03 PM 24.7460 111.1480 307° West 472 543 34,100 -82 Descending FlightAware ADS-B
Fri 08:17:39 PM 24.7920 111.0790 306° West 471 542 34,100  Level FlightAware ADS-B
Fri 08:18:14 PM 24.8300 111.0220 306° West 470 541 34,100  Level FlightAware ADS-B
Fri 08:18:50 PM 24.8690 110.9630 306° West 470 541 34,100  Level FlightAware ADS-B
Fri 08:19:26 PM 24.9090 110.9030 306° West 470 541 34,100  Level FlightAware ADS-B
Fri 08:20:02 PM 24.9480 110.8440 306° West 470 541 34,100  Level FlightAware ADS-B
Fri 08:20:38 PM 24.9870 110.7850 306° West 470 541 34,100  Level FlightAware ADS-B
Fri 08:21:15 PM 25.0270 110.7240 306° West 470 541 34,100  Level FlightAware ADS-B
Fri 08:21:51 PM 25.0660 110.6640 306° West 470 541 34,100  Level FlightAware ADS-B
Fri 08:22:28 PM 25.1060 110.6030 306° West 470 541 34,100  Level FlightAware ADS-B
Fri 08:23:04 PM 25.1450 110.5440 306° West 470 541 34,100  Level FlightAware ADS-B
Fri 08:23:41 PM 25.1860 110.4830 307° West 470 541 34,100  Level FlightAware ADS-B
Fri 08:24:17 PM 25.2250 110.4230 306° West 470 541 34,100  Level FlightAware ADS-B
Fri 08:24:54 PM 25.2650 110.3620 306° West 470 541 34,100  Level FlightAware ADS-B
Fri 08:25:30 PM 25.3040 110.3020 306° West 470 541 34,100  Level FlightAware ADS-B
Fri 08:26:06 PM 25.3430 110.2430 306° West 470 541 34,100  Level FlightAware ADS-B
Fri 08:26:42 PM 25.3820 110.1830 306° West 470 541 34,100  Level FlightAware ADS-B
Fri 08:27:18 PM 25.4210 110.1240 306° West 470 541 34,100 -112 Level FlightAware ADS-B
Fri 08:29:00 PM 25.5445 109.9862 315° West  Level Estimated
Fri 08:30:00 PM 25.6170 109.9050 315° West  Level Estimated
Fri 08:31:00 PM 25.6895 109.8237 315° West  Level Estimated
Fri 08:32:00 PM 25.7620 109.7424 315° West  Level Estimated
Fri 08:33:00 PM 25.8344 109.6609 315° West  Level Estimated
Fri 08:34:00 PM 25.9068 109.5793 315° West  Level Estimated
Fri 08:35:00 PM 25.9792 109.4976 315° West  Level Estimated
Fri 08:36:00 PM 26.0515 109.4158 315° West  Level Estimated
Fri 08:37:00 PM 26.1237 109.3340 315° West  Level Estimated
Fri 08:38:00 PM 26.1959 109.2520 314° West  Level Estimated
Fri 08:39:00 PM 26.2680 109.1699 314° West  Level Estimated
Fri 08:40:00 PM 26.3401 109.0877 314° West  Level Estimated
Fri 08:41:00 PM 26.4122 109.0054 314° West  Level Estimated
Fri 08:42:00 PM 26.4842 108.9230 314° West  Level Estimated
Fri 08:43:00 PM 26.5562 108.8405 314° West  Level Estimated
Fri 08:44:00 PM 26.6281 108.7579 314° West  Level Estimated
Fri 08:45:00 PM 26.6999 108.6752 314° West  Level Estimated
Fri 08:46:00 PM 26.7718 108.5924 314° West  Level Estimated
Fri 08:47:00 PM 26.8435 108.5095 314° West  Level Estimated
Fri 08:48:00 PM 26.9153 108.4265 314° West  Level Estimated
Fri 08:49:00 PM 26.9869 108.3434 314° West  Level Estimated
Fri 08:50:00 PM 27.0585 108.2601 314° West  Level Estimated
Fri 08:51:00 PM 27.1301 108.1768 314° West  Level Estimated
Fri 08:52:00 PM 27.2017 108.0933 314° West  Level Estimated
Fri 08:53:00 PM 27.2731 108.0098 314° West  Level Estimated
Fri 08:54:00 PM 27.3446 107.9261 314° West  Level Estimated
Fri 08:55:00 PM 27.4160 107.8424 314° West  Level Estimated
Fri 08:56:00 PM 27.4873 107.7585 314° West  Level Estimated
Fri 08:57:00 PM 27.5586 107.6745 314° West  Level Estimated
Fri 08:58:00 PM 27.6298 107.5904 314° West  Level Estimated
Fri 08:59:00 PM 27.7010 107.5062 314° West  Level Estimated
Fri 09:00:00 PM 27.7721 107.4219 314° West  Level Estimated
Fri 09:01:00 PM 27.8432 107.3375 314° West  Level Estimated
Fri 09:02:00 PM 27.9142 107.2530 314° West  Level Estimated
Fri 09:03:00 PM 27.9851 107.1683 314° West  Level Estimated
Fri 09:04:00 PM 28.0561 107.0836 313° West  Level Estimated
Fri 09:05:00 PM 28.1269 106.9987 313° West  Level Estimated
Fri 09:06:00 PM 28.1978 106.9137 313° West  Level Estimated
Fri 09:07:00 PM 28.2685 106.8286 313° West  Level Estimated
Fri 09:08:00 PM 28.3392 106.7434 313° West  Level Estimated
Fri 09:09:00 PM 28.4099 106.6581 313° West  Level Estimated
Fri 09:10:00 PM 28.4805 106.5727 313° West  Level Estimated
Fri 09:11:00 PM 28.5510 106.4871 313° West  Level Estimated
Fri 09:11:19 PM 28.6210 104.9020 313° West 423 487 29,100  Level FlightAware ADS-B
Fri 09:12:00 PM 28.6215 106.4015 313° West  Level Estimated
Fri 09:12:05 PM 28.6810 104.8410 318° Northwest 423 487 28,800  Level FlightAware ADS-B
Fri 09:12:43 PM 28.7460 104.7880 324° Northwest 408 470 27,700 -1,000 Descending FlightAware ADS-B
Fri 09:13:23 PM 28.8120 104.7610 340° North 405 466 27,500 -960 Descending FlightAware ADS-B
Fri 09:13:58 PM 28.8800 104.7340 341° North 403 464 26,500 -1,417 Descending FlightAware ADS-B
Fri 09:14:35 PM 28.9470 104.7070 341° North 401 461 25,800 -1,068 Descending FlightAware ADS-B
Fri 09:15:11 PM 29.0090 104.6820 341° North 396 456 25,200 -917 Descending FlightAware ADS-B
Fri 09:15:47 PM 29.0700 104.6570 340° North 389 448 24,700 -971 Descending FlightAware ADS-B
Fri 09:16:19 PM 29.1260 104.6340 340° North 389 448 24,100 -1,059 Descending FlightAware ADS-B
Fri 09:16:55 PM 29.1860 104.6100 341° North 382 440 23,500 -1,000 Descending FlightAware ADS-B
Fri 09:17:31 PM 29.2450 104.5850 340° North 376 433 22,900 -986 Descending FlightAware ADS-B
Fri 09:18:08 PM 29.3050 104.5610 341° North 371 427 22,300 -971 Descending FlightAware ADS-B
Fri 09:18:39 PM 29.3570 104.5400 341° North 369 425 21,800 -896 Descending FlightAware ADS-B
Fri 09:19:15 PM 29.4140 104.5160 340° North 358 412 21,300 -986 Descending FlightAware ADS-B
Fri 09:19:52 PM 29.4710 104.4920 340° North 349 402 20,600 -986 Descending FlightAware ADS-B
Fri 09:20:28 PM 29.5260 104.4700 341° North 352 405 20,100 -1,125 Descending FlightAware ADS-B
Fri 09:20:56 PM 29.5690 104.4510 339° North 355 409 19,400 -1,500 Descending FlightAware ADS-B
Fri 09:21:08 PM 29.5830 104.4390 323° Northwest 362 417 19,100 -1,154 Descending FlightAware ADS-B
Fri 09:21:22 PM 29.5990 104.4150 307° West 358 412 18,900 -840 Descending FlightAware ADS-B
Fri 09:21:58 PM 29.6240 104.3560 296° West 343 395 18,400 -1,125 Descending FlightAware ADS-B
Fri 09:22:26 PM 29.6430 104.3110 296° West 335 386 17,700 -1,650 Descending FlightAware ADS-B
Fri 09:22:38 PM 29.6550 104.2960 313° West 333 383 17,300 -2,143 Descending FlightAware ADS-B
Fri 09:22:54 PM 29.6790 104.2830 335° Northwest 328 377 16,700 -2,077 Descending FlightAware ADS-B
Fri 09:23:04 PM 29.6930 104.2810 353° North 322 371 16,400 -1,500 Descending FlightAware ADS-B
Fri 09:23:26 PM 29.7250 104.2840 North 316 364 15,900 -1,322 Descending FlightAware ADS-B
Fri 09:24:03 PM 29.7760 104.2890 North 309 356 15,100 -1,726 Descending FlightAware ADS-B
Fri 09:24:39 PM 29.8300 104.2940 North 318 366 13,800 -1,881 Descending FlightAware ADS-B
Fri 09:25:10 PM 29.8770 104.2980 North 313 360 13,000 -1,475 Descending FlightAware ADS-B
Fri 09:25:40 PM 29.9190 104.3020 North 306 352 12,300 -1,358 Descending FlightAware ADS-B
Fri 09:26:03 PM 29.9500 104.2930 346° North 306 352 11,800 -1,241 Descending FlightAware ADS-B
Fri 09:26:38 PM 29.9950 104.2700 336° Northwest 293 337 11,100 -1,324 Descending FlightAware ADS-B
Fri 09:27:11 PM 30.0360 104.2490 336° Northwest 290 334 10,300 -1,615 Descending FlightAware ADS-B
Fri 09:27:30 PM 30.0600 104.2370 337° Northwest 290 334 9,700 -1,535 Descending FlightAware ADS-B
Fri 09:27:54 PM 30.0900 104.2220 337° Northwest 291 335 9,200 -1,091 Descending FlightAware ADS-B
Fri 09:28:14 PM 30.1140 104.2090 335° Northwest 293 337 8,900 -857 Descending FlightAware ADS-B
Fri 09:28:22 PM 30.1230 104.2020 326° Northwest 294 338 8,800 -750 Descending FlightAware ADS-B
Fri 09:28:30 PM 30.1310 104.1920 313° West 292 336 8,700 -857 Descending FlightAware ADS-B
Fri 09:28:50 PM 30.1460 104.1680 306° West 281 323 8,400 -900 Descending FlightAware ADS-B
Fri 09:29:10 PM 30.1620 104.1440 308° West 271 312 8,100 -667 Descending FlightAware ADS-B
Fri 09:29:26 PM 30.1730 104.1260 305° West 267 307 8,000 -667 Descending FlightAware ADS-B
Fri 09:29:46 PM 30.1870 104.1030 305° West 264 304 7,700 -900 Descending FlightAware ADS-B
Fri 09:30:06 PM 30.2020 104.0800 307° West 258 297 7,400 -706 Descending FlightAware ADS-B
Fri 09:30:20 PM 30.2120 104.0640 306° West 249 287 7,300 -667 Descending FlightAware ADS-B
Fri 09:30:42 PM 30.2270 104.0410 307° West 236 272 7,000 -667 Descending FlightAware ADS-B
Fri 09:30:56 PM 30.2340 104.0280 302° West 230 265 6,900 -571 Descending FlightAware ADS-B
Fri 09:31:24 PM 30.2520 103.9990 306° West 225 259 6,600 -625 Descending FlightAware ADS-B
Fri 09:31:44 PM 30.2640 103.9800 306° West 228 262 6,400 -545 Descending FlightAware ADS-B
Fri 09:32:08 PM 30.2790 103.9560 306° West 227 261 6,200 -409 Descending FlightAware ADS-B
Fri 09:32:28 PM 30.2910 103.9380 308° West 205 236 6,100 -214 Descending FlightAware ADS-B
Fri 09:32:36 PM 30.2940 103.9290 291° West 200 230 6,100  Level FlightAware ADS-B
Fri 09:32:56 PM 30.2990 103.9100 287° West 197 227 6,100 -300 Level FlightAware ADS-B
Fri 09:33:16 PM 30.3040 103.8890 285° West 192 221 5,900 -563 Descending FlightAware ADS-B
Fri 09:33:28 PM 30.3080 103.8770 291° West 188 216 5,800 -600 Descending FlightAware ADS-B
Fri 09:33:36 PM 30.3130 103.8710 314° West 186 214 5,700 -800 Descending FlightAware ADS-B
Fri 09:33:43 PM 30.3170 103.8690 337° Northwest 185 213 5,600 -400 Descending FlightAware ADS-B
Fri 09:33:51 PM 30.3240 103.8660 340° North 185 213 5,600 -429 Level FlightAware ADS-B
Fri 09:34:11 PM 30.3400 103.8620 348° North 184 212 5,400 -621 Descending FlightAware ADS-B
Fri 09:34:20 PM 30.3490 103.8600 349° North 188 216 5,300 -828 Descending FlightAware ADS-B
Fri 09:34:40 PM 30.3650 103.8660 18° North 188 216 5,000 -1,050 Descending FlightAware ADS-B
Fri 09:35:00 PM 30.3820 103.8730 20° North 185 213 4,600 -1,024 Descending FlightAware ADS-B
Fri 09:35:21 PM 30.3980 103.8800 21° North 182 209 4,300 -818 Descending FlightAware ADS-B
Fri 09:35:44 PM 30.4160 103.8890 23° Northeast 182 209 4,000 -837 Descending FlightAware ADS-B
Fri 09:36:04 PM 30.4320 103.8960 21° North 172 198 3,700 -900 Descending FlightAware ADS-B
Fri 09:36:24 PM 30.4460 103.9030 23° Northeast 158 182 3,400 -878 Descending FlightAware ADS-B
Fri 09:36:45 PM 30.4600 103.9090 20° North 153 176 3,100 -857 Descending FlightAware ADS-B
Fri 09:37:06 PM 30.4750 103.9160 22° Northeast 156 180 2,800 -714 Descending FlightAware ADS-B
Fri 09:37:27 PM 30.4880 103.9220 22° Northeast 156 180 2,600 -714 Descending FlightAware ADS-B
Fri 09:37:48 PM 30.5020 103.9290 23° Northeast 158 182 2,300 -878 Descending FlightAware ADS-B
Fri 09:38:08 PM 30.5160 103.9350 20° North 158 182 2,000 -444 Descending FlightAware ADS-B
Fri 09:38:42 PM 30.5360 103.9440 21° North 157 181 1,900 -176 Descending FlightAware ADS-B

Login

Don't have an account? Register now (free) for customized features, flight alerts, and more!